sensor_id;sensor_type;location;lat;lon;timestamp;P1;durP1;ratioP1;P2;durP2;ratioP2
23078;SDS011;11707;50.830;4.364;2023-07-16T00:00:04;5.45;;;2.20;;
23078;SDS011;11707;50.830;4.364;2023-07-16T00:02:30;9.63;;;2.40;;
23078;SDS011;11707;50.830;4.364;2023-07-16T00:04:58;6.30;;;2.00;;
23078;SDS011;11707;50.830;4.364;2023-07-16T00:07:26;9.57;;;2.25;;
23078;SDS011;11707;50.830;4.364;2023-07-16T00:09:51;5.28;;;2.13;;
23078;SDS011;11707;50.830;4.364;2023-07-16T00:12:17;11.40;;;2.05;;
23078;SDS011;11707;50.830;4.364;2023-07-16T00:14:42;9.68;;;2.65;;
23078;SDS011;11707;50.830;4.364;2023-07-16T00:17:08;9.80;;;2.60;;
23078;SDS011;11707;50.830;4.364;2023-07-16T00:19:34;10.65;;;2.58;;
23078;SDS011;11707;50.830;4.364;2023-07-16T00:21:59;9.70;;;2.35;;
23078;SDS011;11707;50.830;4.364;2023-07-16T00:24:33;6.63;;;1.80;;
23078;SDS011;11707;50.830;4.364;2023-07-16T00:26:58;8.30;;;2.95;;
23078;SDS011;11707;50.830;4.364;2023-07-16T00:29:24;7.55;;;2.72;;
23078;SDS011;11707;50.830;4.364;2023-07-16T00:31:50;11.23;;;2.72;;
23078;SDS011;11707;50.830;4.364;2023-07-16T00:34:16;9.98;;;2.20;;
23078;SDS011;11707;50.830;4.364;2023-07-16T00:36:44;8.23;;;2.05;;
23078;SDS011;11707;50.830;4.364;2023-07-16T00:39:10;11.23;;;2.83;;
23078;SDS011;11707;50.830;4.364;2023-07-16T00:41:35;12.88;;;2.83;;
23078;SDS011;11707;50.830;4.364;2023-07-16T00:44:01;8.48;;;2.20;;
23078;SDS011;11707;50.830;4.364;2023-07-16T00:46:27;10.65;;;2.63;;
23078;SDS011;11707;50.830;4.364;2023-07-16T00:48:53;6.97;;;2.13;;
23078;SDS011;11707;50.830;4.364;2023-07-16T00:51:19;7.82;;;2.15;;
23078;SDS011;11707;50.830;4.364;2023-07-16T00:53:49;9.65;;;2.50;;
23078;SDS011;11707;50.830;4.364;2023-07-16T00:56:15;10.38;;;2.15;;
23078;SDS011;11707;50.830;4.364;2023-07-16T00:58:42;8.57;;;3.25;;
23078;SDS011;11707;50.830;4.364;2023-07-16T01:01:10;9.65;;;2.92;;
23078;SDS011;11707;50.830;4.364;2023-07-16T01:03:36;10.18;;;2.40;;
23078;SDS011;11707;50.830;4.364;2023-07-16T01:09:01;9.25;;;1.90;;
23078;SDS011;11707;50.830;4.364;2023-07-16T01:11:48;10.30;;;2.55;;
23078;SDS011;11707;50.830;4.364;2023-07-16T01:14:16;6.72;;;2.20;;
23078;SDS011;11707;50.830;4.364;2023-07-16T01:16:42;12.95;;;3.20;;
23078;SDS011;11707;50.830;4.364;2023-07-16T01:19:10;6.18;;;2.40;;
23078;SDS011;11707;50.830;4.364;2023-07-16T01:21:51;10.27;;;2.33;;
23078;SDS011;11707;50.830;4.364;2023-07-16T01:30:10;7.82;;;2.70;;
23078;SDS011;11707;50.830;4.364;2023-07-16T01:32:40;7.57;;;2.83;;
23078;SDS011;11707;50.830;4.364;2023-07-16T01:35:07;8.48;;;2.70;;
23078;SDS011;11707;50.830;4.364;2023-07-16T01:37:34;12.25;;;2.72;;
23078;SDS011;11707;50.830;4.364;2023-07-16T01:40:03;5.72;;;2.80;;
23078;SDS011;11707;50.830;4.364;2023-07-16T01:42:33;9.23;;;3.03;;
23078;SDS011;11707;50.830;4.364;2023-07-16T01:44:59;11.88;;;2.80;;
23078;SDS011;11707;50.830;4.364;2023-07-16T01:52:24;12.65;;;2.70;;
23078;SDS011;11707;50.830;4.364;2023-07-16T01:54:50;12.25;;;2.40;;
23078;SDS011;11707;50.830;4.364;2023-07-16T01:57:15;5.57;;;2.50;;
23078;SDS011;11707;50.830;4.364;2023-07-16T01:59:43;7.43;;;2.53;;
23078;SDS011;11707;50.830;4.364;2023-07-16T02:02:10;13.63;;;3.03;;
23078;SDS011;11707;50.830;4.364;2023-07-16T02:04:35;8.63;;;2.85;;
23078;SDS011;11707;50.830;4.364;2023-07-16T02:07:01;12.18;;;2.75;;
23078;SDS011;11707;50.830;4.364;2023-07-16T02:09:26;7.18;;;2.50;;
23078;SDS011;11707;50.830;4.364;2023-07-16T02:11:54;6.82;;;2.45;;
23078;SDS011;11707;50.830;4.364;2023-07-16T02:14:20;8.45;;;2.97;;
23078;SDS011;11707;50.830;4.364;2023-07-16T02:16:45;16.58;;;3.00;;
23078;SDS011;11707;50.830;4.364;2023-07-16T02:19:11;8.68;;;2.55;;
23078;SDS011;11707;50.830;4.364;2023-07-16T02:21:39;9.13;;;2.75;;
23078;SDS011;11707;50.830;4.364;2023-07-16T02:24:05;8.73;;;2.67;;
23078;SDS011;11707;50.830;4.364;2023-07-16T02:26:31;9.07;;;3.13;;
23078;SDS011;11707;50.830;4.364;2023-07-16T02:28:56;15.00;;;3.50;;
23078;SDS011;11707;50.830;4.364;2023-07-16T02:31:24;10.93;;;3.35;;
23078;SDS011;11707;50.830;4.364;2023-07-16T02:33:49;10.55;;;2.85;;
23078;SDS011;11707;50.830;4.364;2023-07-16T02:36:15;10.93;;;3.60;;
23078;SDS011;11707;50.830;4.364;2023-07-16T02:38:41;12.18;;;4.03;;
23078;SDS011;11707;50.830;4.364;2023-07-16T02:41:06;10.00;;;3.75;;
23078;SDS011;11707;50.830;4.364;2023-07-16T02:43:32;7.93;;;4.03;;
23078;SDS011;11707;50.830;4.364;2023-07-16T02:45:58;9.70;;;3.67;;
23078;SDS011;11707;50.830;4.364;2023-07-16T02:48:23;10.43;;;3.78;;
23078;SDS011;11707;50.830;4.364;2023-07-16T02:50:51;15.95;;;4.35;;
23078;SDS011;11707;50.830;4.364;2023-07-16T02:53:17;14.63;;;4.13;;
23078;SDS011;11707;50.830;4.364;2023-07-16T02:55:45;8.65;;;3.72;;
23078;SDS011;11707;50.830;4.364;2023-07-16T02:58:11;11.15;;;3.45;;
23078;SDS011;11707;50.830;4.364;2023-07-16T03:00:37;9.95;;;3.45;;
23078;SDS011;11707;50.830;4.364;2023-07-16T03:03:04;10.80;;;3.72;;
23078;SDS011;11707;50.830;4.364;2023-07-16T03:05:32;9.35;;;3.60;;
23078;SDS011;11707;50.830;4.364;2023-07-16T03:07:58;7.82;;;3.70;;
23078;SDS011;11707;50.830;4.364;2023-07-16T03:10:24;9.75;;;4.15;;
23078;SDS011;11707;50.830;4.364;2023-07-16T03:12:51;5.38;;;3.53;;
23078;SDS011;11707;50.830;4.364;2023-07-16T03:15:17;9.80;;;3.35;;
23078;SDS011;11707;50.830;4.364;2023-07-16T03:17:43;9.50;;;3.72;;
23078;SDS011;11707;50.830;4.364;2023-07-16T03:20:11;13.20;;;4.18;;
23078;SDS011;11707;50.830;4.364;2023-07-16T03:22:38;11.15;;;3.58;;
23078;SDS011;11707;50.830;4.364;2023-07-16T03:25:06;10.93;;;4.00;;
23078;SDS011;11707;50.830;4.364;2023-07-16T03:27:32;12.02;;;3.65;;
23078;SDS011;11707;50.830;4.364;2023-07-16T03:29:58;9.60;;;3.38;;
23078;SDS011;11707;50.830;4.364;2023-07-16T03:32:23;10.45;;;4.20;;
23078;SDS011;11707;50.830;4.364;2023-07-16T03:34:49;11.45;;;4.45;;
23078;SDS011;11707;50.830;4.364;2023-07-16T03:37:15;10.70;;;4.03;;
23078;SDS011;11707;50.830;4.364;2023-07-16T03:39:40;9.88;;;3.47;;
23078;SDS011;11707;50.830;4.364;2023-07-16T03:42:08;8.88;;;4.63;;
23078;SDS011;11707;50.830;4.364;2023-07-16T03:44:34;10.65;;;4.10;;
23078;SDS011;11707;50.830;4.364;2023-07-16T03:46:59;8.25;;;4.18;;
23078;SDS011;11707;50.830;4.364;2023-07-16T03:49:25;10.98;;;4.15;;
23078;SDS011;11707;50.830;4.364;2023-07-16T03:51:51;9.10;;;4.20;;
23078;SDS011;11707;50.830;4.364;2023-07-16T03:54:16;12.25;;;5.03;;
23078;SDS011;11707;50.830;4.364;2023-07-16T03:56:42;9.88;;;4.45;;
23078;SDS011;11707;50.830;4.364;2023-07-16T03:59:08;10.75;;;3.80;;
23078;SDS011;11707;50.830;4.364;2023-07-16T04:01:36;7.90;;;4.32;;
23078;SDS011;11707;50.830;4.364;2023-07-16T04:04:01;15.23;;;4.50;;
23078;SDS011;11707;50.830;4.364;2023-07-16T04:06:27;12.48;;;4.70;;
23078;SDS011;11707;50.830;4.364;2023-07-16T04:08:53;9.02;;;4.13;;
23078;SDS011;11707;50.830;4.364;2023-07-16T04:11:21;9.85;;;3.83;;
23078;SDS011;11707;50.830;4.364;2023-07-16T04:13:51;12.75;;;5.00;;
23078;SDS011;11707;50.830;4.364;2023-07-16T04:16:17;16.67;;;5.40;;
23078;SDS011;11707;50.830;4.364;2023-07-16T04:18:42;11.82;;;4.72;;
23078;SDS011;11707;50.830;4.364;2023-07-16T04:21:10;13.52;;;4.93;;
23078;SDS011;11707;50.830;4.364;2023-07-16T04:23:36;10.73;;;4.85;;
23078;SDS011;11707;50.830;4.364;2023-07-16T04:26:06;11.93;;;4.97;;
23078;SDS011;11707;50.830;4.364;2023-07-16T04:28:32;14.15;;;4.40;;
23078;SDS011;11707;50.830;4.364;2023-07-16T04:30:58;9.57;;;5.07;;
23078;SDS011;11707;50.830;4.364;2023-07-16T04:33:23;10.82;;;4.50;;
23078;SDS011;11707;50.830;4.364;2023-07-16T04:35:49;13.85;;;5.65;;
23078;SDS011;11707;50.830;4.364;2023-07-16T04:38:15;10.75;;;5.05;;
23078;SDS011;11707;50.830;4.364;2023-07-16T04:40:41;12.18;;;4.97;;
23078;SDS011;11707;50.830;4.364;2023-07-16T04:43:10;14.15;;;6.20;;
23078;SDS011;11707;50.830;4.364;2023-07-16T04:45:35;10.80;;;5.20;;
23078;SDS011;11707;50.830;4.364;2023-07-16T04:48:05;10.45;;;4.82;;
23078;SDS011;11707;50.830;4.364;2023-07-16T04:50:35;13.88;;;5.05;;
23078;SDS011;11707;50.830;4.364;2023-07-16T04:53:00;13.65;;;5.10;;
23078;SDS011;11707;50.830;4.364;2023-07-16T04:55:26;17.17;;;5.82;;
23078;SDS011;11707;50.830;4.364;2023-07-16T04:57:54;11.38;;;5.20;;
23078;SDS011;11707;50.830;4.364;2023-07-16T05:00:21;13.60;;;5.57;;
23078;SDS011;11707;50.830;4.364;2023-07-16T05:02:50;10.73;;;5.53;;
23078;SDS011;11707;50.830;4.364;2023-07-16T05:05:15;9.75;;;5.32;;
23078;SDS011;11707;50.830;4.364;2023-07-16T05:07:41;9.98;;;5.25;;
23078;SDS011;11707;50.830;4.364;2023-07-16T05:10:07;11.05;;;5.20;;
23078;SDS011;11707;50.830;4.364;2023-07-16T05:12:33;13.25;;;4.55;;
23078;SDS011;11707;50.830;4.364;2023-07-16T05:14:58;14.10;;;5.25;;
23078;SDS011;11707;50.830;4.364;2023-07-16T05:17:24;13.75;;;6.10;;
23078;SDS011;11707;50.830;4.364;2023-07-16T05:19:50;10.80;;;5.25;;
23078;SDS011;11707;50.830;4.364;2023-07-16T05:22:15;21.02;;;6.63;;
23078;SDS011;11707;50.830;4.364;2023-07-16T05:24:41;8.55;;;5.00;;
23078;SDS011;11707;50.830;4.364;2023-07-16T05:27:07;14.80;;;5.68;;
23078;SDS011;11707;50.830;4.364;2023-07-16T05:29:32;13.15;;;5.40;;
23078;SDS011;11707;50.830;4.364;2023-07-16T05:31:58;11.80;;;5.88;;
23078;SDS011;11707;50.830;4.364;2023-07-16T05:34:24;7.60;;;4.65;;
23078;SDS011;11707;50.830;4.364;2023-07-16T05:36:49;14.23;;;6.68;;
23078;SDS011;11707;50.830;4.364;2023-07-16T05:39:18;11.05;;;6.00;;
23078;SDS011;11707;50.830;4.364;2023-07-16T05:41:44;10.60;;;5.68;;
23078;SDS011;11707;50.830;4.364;2023-07-16T05:44:10;9.00;;;4.78;;
23078;SDS011;11707;50.830;4.364;2023-07-16T05:46:35;15.10;;;6.70;;
23078;SDS011;11707;50.830;4.364;2023-07-16T05:49:01;15.13;;;5.72;;
23078;SDS011;11707;50.830;4.364;2023-07-16T05:51:27;13.45;;;5.88;;
23078;SDS011;11707;50.830;4.364;2023-07-16T05:53:55;12.75;;;5.47;;
23078;SDS011;11707;50.830;4.364;2023-07-16T05:56:20;16.25;;;6.72;;
23078;SDS011;11707;50.830;4.364;2023-07-16T05:58:46;13.50;;;6.13;;
23078;SDS011;11707;50.830;4.364;2023-07-16T06:01:12;14.90;;;5.70;;
23078;SDS011;11707;50.830;4.364;2023-07-16T06:03:37;15.38;;;6.68;;
23078;SDS011;11707;50.830;4.364;2023-07-16T06:06:03;18.95;;;5.95;;
23078;SDS011;11707;50.830;4.364;2023-07-16T06:08:29;14.65;;;6.07;;
23078;SDS011;11707;50.830;4.364;2023-07-16T06:10:56;11.98;;;5.97;;
23078;SDS011;11707;50.830;4.364;2023-07-16T06:13:22;17.83;;;7.43;;
23078;SDS011;11707;50.830;4.364;2023-07-16T06:15:48;18.02;;;7.40;;
23078;SDS011;11707;50.830;4.364;2023-07-16T06:18:14;15.88;;;6.60;;
23078;SDS011;11707;50.830;4.364;2023-07-16T06:20:43;15.60;;;6.78;;
23078;SDS011;11707;50.830;4.364;2023-07-16T06:23:09;18.10;;;6.97;;
23078;SDS011;11707;50.830;4.364;2023-07-16T06:25:36;16.48;;;6.55;;
23078;SDS011;11707;50.830;4.364;2023-07-16T06:28:01;16.38;;;6.55;;
23078;SDS011;11707;50.830;4.364;2023-07-16T06:30:28;14.35;;;6.25;;
23078;SDS011;11707;50.830;4.364;2023-07-16T06:32:58;12.65;;;6.63;;
23078;SDS011;11707;50.830;4.364;2023-07-16T06:35:24;23.42;;;7.43;;
23078;SDS011;11707;50.830;4.364;2023-07-16T06:37:52;19.65;;;6.35;;
23078;SDS011;11707;50.830;4.364;2023-07-16T06:40:17;11.88;;;6.38;;
23078;SDS011;11707;50.830;4.364;2023-07-16T06:42:43;15.07;;;6.53;;
23078;SDS011;11707;50.830;4.364;2023-07-16T06:45:09;18.30;;;7.20;;
23078;SDS011;11707;50.830;4.364;2023-07-16T06:47:35;18.83;;;7.03;;
23078;SDS011;11707;50.830;4.364;2023-07-16T06:50:01;10.15;;;6.30;;
23078;SDS011;11707;50.830;4.364;2023-07-16T06:52:31;18.23;;;6.70;;
23078;SDS011;11707;50.830;4.364;2023-07-16T06:54:57;12.77;;;6.15;;
23078;SDS011;11707;50.830;4.364;2023-07-16T06:57:25;15.45;;;6.82;;
23078;SDS011;11707;50.830;4.364;2023-07-16T06:59:50;12.38;;;6.07;;
23078;SDS011;11707;50.830;4.364;2023-07-16T07:02:19;14.07;;;6.40;;
23078;SDS011;11707;50.830;4.364;2023-07-16T07:04:45;14.07;;;6.40;;
23078;SDS011;11707;50.830;4.364;2023-07-16T07:07:13;21.88;;;6.95;;
23078;SDS011;11707;50.830;4.364;2023-07-16T07:09:39;13.88;;;6.78;;
23078;SDS011;11707;50.830;4.364;2023-07-16T07:12:04;15.95;;;7.35;;
23078;SDS011;11707;50.830;4.364;2023-07-16T07:14:32;12.63;;;6.35;;
23078;SDS011;11707;50.830;4.364;2023-07-16T07:16:58;14.13;;;6.20;;
23078;SDS011;11707;50.830;4.364;2023-07-16T07:19:24;14.25;;;6.75;;
23078;SDS011;11707;50.830;4.364;2023-07-16T07:21:49;18.83;;;6.32;;
23078;SDS011;11707;50.830;4.364;2023-07-16T07:24:15;18.20;;;6.68;;
23078;SDS011;11707;50.830;4.364;2023-07-16T07:26:43;15.65;;;6.40;;
23078;SDS011;11707;50.830;4.364;2023-07-16T07:29:09;17.20;;;5.30;;
23078;SDS011;11707;50.830;4.364;2023-07-16T07:31:35;15.88;;;6.00;;
23078;SDS011;11707;50.830;4.364;2023-07-16T07:34:03;14.43;;;6.72;;
23078;SDS011;11707;50.830;4.364;2023-07-16T07:36:28;12.10;;;5.32;;
23078;SDS011;11707;50.830;4.364;2023-07-16T07:38:54;17.08;;;6.88;;
23078;SDS011;11707;50.830;4.364;2023-07-16T07:41:20;15.95;;;6.40;;
23078;SDS011;11707;50.830;4.364;2023-07-16T07:43:45;12.43;;;6.15;;
23078;SDS011;11707;50.830;4.364;2023-07-16T07:46:11;16.17;;;6.50;;
23078;SDS011;11707;50.830;4.364;2023-07-16T07:48:37;16.50;;;6.45;;
23078;SDS011;11707;50.830;4.364;2023-07-16T07:51:02;16.20;;;6.57;;
23078;SDS011;11707;50.830;4.364;2023-07-16T07:53:28;13.10;;;6.78;;
23078;SDS011;11707;50.830;4.364;2023-07-16T07:55:54;20.10;;;6.38;;
23078;SDS011;11707;50.830;4.364;2023-07-16T07:58:19;16.20;;;6.78;;
23078;SDS011;11707;50.830;4.364;2023-07-16T08:00:45;14.30;;;6.53;;
23078;SDS011;11707;50.830;4.364;2023-07-16T08:03:11;16.63;;;7.57;;
23078;SDS011;11707;50.830;4.364;2023-07-16T08:05:36;16.90;;;6.85;;
23078;SDS011;11707;50.830;4.364;2023-07-16T08:08:02;14.82;;;6.95;;
23078;SDS011;11707;50.830;4.364;2023-07-16T08:10:28;13.38;;;6.20;;
23078;SDS011;11707;50.830;4.364;2023-07-16T08:12:53;14.25;;;6.95;;
23078;SDS011;11707;50.830;4.364;2023-07-16T08:15:19;10.90;;;6.40;;
23078;SDS011;11707;50.830;4.364;2023-07-16T08:17:47;9.55;;;5.97;;
23078;SDS011;11707;50.830;4.364;2023-07-16T08:20:15;18.10;;;7.00;;
23078;SDS011;11707;50.830;4.364;2023-07-16T08:22:41;13.38;;;5.80;;
23078;SDS011;11707;50.830;4.364;2023-07-16T08:25:07;15.00;;;6.05;;
23078;SDS011;11707;50.830;4.364;2023-07-16T08:27:33;9.50;;;5.03;;
23078;SDS011;11707;50.830;4.364;2023-07-16T08:30:02;11.23;;;5.60;;
23078;SDS011;11707;50.830;4.364;2023-07-16T08:32:27;11.32;;;5.97;;
23078;SDS011;11707;50.830;4.364;2023-07-16T08:34:53;11.52;;;4.68;;
23078;SDS011;11707;50.830;4.364;2023-07-16T08:37:19;11.57;;;4.65;;
23078;SDS011;11707;50.830;4.364;2023-07-16T08:39:47;9.70;;;4.78;;
23078;SDS011;11707;50.830;4.364;2023-07-16T08:42:18;12.65;;;4.80;;
23078;SDS011;11707;50.830;4.364;2023-07-16T08:44:45;9.15;;;4.70;;
23078;SDS011;11707;50.830;4.364;2023-07-16T08:47:11;8.68;;;4.93;;
23078;SDS011;11707;50.830;4.364;2023-07-16T08:49:37;10.82;;;4.88;;
23078;SDS011;11707;50.830;4.364;2023-07-16T08:52:04;8.82;;;4.72;;
23078;SDS011;11707;50.830;4.364;2023-07-16T08:54:31;10.32;;;4.97;;
23078;SDS011;11707;50.830;4.364;2023-07-16T08:56:57;12.05;;;5.28;;
23078;SDS011;11707;50.830;4.364;2023-07-16T08:59:23;12.52;;;5.50;;
23078;SDS011;11707;50.830;4.364;2023-07-16T09:01:52;15.45;;;5.47;;
23078;SDS011;11707;50.830;4.364;2023-07-16T09:04:17;11.43;;;5.38;;
23078;SDS011;11707;50.830;4.364;2023-07-16T09:06:46;14.45;;;4.85;;
23078;SDS011;11707;50.830;4.364;2023-07-16T09:09:19;9.68;;;4.30;;
23078;SDS011;11707;50.830;4.364;2023-07-16T09:11:46;16.92;;;4.90;;
23078;SDS011;11707;50.830;4.364;2023-07-16T09:14:14;12.75;;;4.75;;
23078;SDS011;11707;50.830;4.364;2023-07-16T09:16:50;12.43;;;5.15;;
23078;SDS011;11707;50.830;4.364;2023-07-16T09:19:25;9.15;;;4.18;;
23078;SDS011;11707;50.830;4.364;2023-07-16T09:21:51;11.52;;;4.90;;
23078;SDS011;11707;50.830;4.364;2023-07-16T09:24:18;7.57;;;4.20;;
23078;SDS011;11707;50.830;4.364;2023-07-16T09:26:50;10.23;;;4.22;;
23078;SDS011;11707;50.830;4.364;2023-07-16T09:29:18;14.00;;;4.95;;
23078;SDS011;11707;50.830;4.364;2023-07-16T09:31:52;11.80;;;4.20;;
23078;SDS011;11707;50.830;4.364;2023-07-16T09:34:30;13.45;;;5.53;;
23078;SDS011;11707;50.830;4.364;2023-07-16T09:37:00;11.73;;;4.30;;
23078;SDS011;11707;50.830;4.364;2023-07-16T09:39:26;10.32;;;4.97;;
23078;SDS011;11707;50.830;4.364;2023-07-16T09:41:56;10.23;;;4.55;;
23078;SDS011;11707;50.830;4.364;2023-07-16T09:44:23;13.20;;;4.90;;
23078;SDS011;11707;50.830;4.364;2023-07-16T09:46:50;10.55;;;5.45;;
23078;SDS011;11707;50.830;4.364;2023-07-16T09:49:16;8.63;;;4.65;;
23078;SDS011;11707;50.830;4.364;2023-07-16T09:51:42;9.32;;;4.47;;
23078;SDS011;11707;50.830;4.364;2023-07-16T09:54:11;12.25;;;5.13;;
23078;SDS011;11707;50.830;4.364;2023-07-16T09:56:44;8.93;;;4.88;;
23078;SDS011;11707;50.830;4.364;2023-07-16T09:59:13;10.57;;;4.32;;
23078;SDS011;11707;50.830;4.364;2023-07-16T10:01:41;8.88;;;4.53;;
23078;SDS011;11707;50.830;4.364;2023-07-16T10:04:16;12.82;;;4.65;;
23078;SDS011;11707;50.830;4.364;2023-07-16T10:09:38;9.57;;;4.68;;
23078;SDS011;11707;50.830;4.364;2023-07-16T10:14:45;11.75;;;3.95;;
23078;SDS011;11707;50.830;4.364;2023-07-16T10:17:19;12.32;;;4.95;;
23078;SDS011;11707;50.830;4.364;2023-07-16T10:27:35;12.40;;;4.57;;
23078;SDS011;11707;50.830;4.364;2023-07-16T10:30:02;12.50;;;5.55;;
23078;SDS011;11707;50.830;4.364;2023-07-16T10:32:29;12.32;;;5.22;;
23078;SDS011;11707;50.830;4.364;2023-07-16T10:34:56;8.75;;;4.68;;
23078;SDS011;11707;50.830;4.364;2023-07-16T10:37:22;12.18;;;4.95;;
23078;SDS011;11707;50.830;4.364;2023-07-16T10:39:48;12.32;;;5.45;;
23078;SDS011;11707;50.830;4.364;2023-07-16T10:42:16;13.25;;;5.70;;
23078;SDS011;11707;50.830;4.364;2023-07-16T10:44:42;14.20;;;5.45;;
23078;SDS011;11707;50.830;4.364;2023-07-16T10:47:09;10.75;;;4.07;;
23078;SDS011;11707;50.830;4.364;2023-07-16T10:49:44;16.55;;;5.30;;
23078;SDS011;11707;50.830;4.364;2023-07-16T10:52:09;8.52;;;4.68;;
23078;SDS011;11707;50.830;4.364;2023-07-16T10:54:35;10.20;;;4.40;;
23078;SDS011;11707;50.830;4.364;2023-07-16T10:57:04;14.27;;;4.80;;
23078;SDS011;11707;50.830;4.364;2023-07-16T10:59:33;13.13;;;4.70;;
23078;SDS011;11707;50.830;4.364;2023-07-16T11:01:58;11.85;;;4.93;;
23078;SDS011;11707;50.830;4.364;2023-07-16T11:04:26;8.60;;;4.22;;
23078;SDS011;11707;50.830;4.364;2023-07-16T11:06:59;9.65;;;4.43;;
23078;SDS011;11707;50.830;4.364;2023-07-16T11:09:31;13.95;;;4.88;;
23078;SDS011;11707;50.830;4.364;2023-07-16T11:12:05;11.30;;;4.80;;
23078;SDS011;11707;50.830;4.364;2023-07-16T11:14:32;12.95;;;6.45;;
23078;SDS011;11707;50.830;4.364;2023-07-16T11:17:03;10.82;;;4.57;;
23078;SDS011;11707;50.830;4.364;2023-07-16T11:19:33;10.68;;;4.75;;
23078;SDS011;11707;50.830;4.364;2023-07-16T11:22:00;10.90;;;6.50;;
23078;SDS011;11707;50.830;4.364;2023-07-16T11:24:36;9.32;;;4.80;;
23078;SDS011;11707;50.830;4.364;2023-07-16T11:27:06;8.55;;;4.35;;
23078;SDS011;11707;50.830;4.364;2023-07-16T11:29:49;13.60;;;4.00;;
23078;SDS011;11707;50.830;4.364;2023-07-16T11:32:29;11.18;;;4.85;;
23078;SDS011;11707;50.830;4.364;2023-07-16T11:34:59;9.02;;;4.32;;
23078;SDS011;11707;50.830;4.364;2023-07-16T11:37:27;13.27;;;4.20;;
23078;SDS011;11707;50.830;4.364;2023-07-16T11:39:57;10.65;;;4.47;;
23078;SDS011;11707;50.830;4.364;2023-07-16T11:42:27;11.65;;;5.55;;
23078;SDS011;11707;50.830;4.364;2023-07-16T11:45:14;9.65;;;4.80;;
23078;SDS011;11707;50.830;4.364;2023-07-16T11:47:52;10.40;;;5.05;;
23078;SDS011;11707;50.830;4.364;2023-07-16T11:50:17;8.70;;;4.47;;
23078;SDS011;11707;50.830;4.364;2023-07-16T11:52:51;9.50;;;4.88;;
23078;SDS011;11707;50.830;4.364;2023-07-16T11:55:18;9.00;;;4.45;;
23078;SDS011;11707;50.830;4.364;2023-07-16T11:57:44;14.88;;;5.22;;
23078;SDS011;11707;50.830;4.364;2023-07-16T12:00:10;12.43;;;5.40;;
23078;SDS011;11707;50.830;4.364;2023-07-16T12:02:36;15.52;;;5.05;;
23078;SDS011;11707;50.830;4.364;2023-07-16T12:05:02;11.35;;;4.60;;
23078;SDS011;11707;50.830;4.364;2023-07-16T12:07:32;10.23;;;4.88;;
23078;SDS011;11707;50.830;4.364;2023-07-16T12:09:59;9.15;;;4.03;;
23078;SDS011;11707;50.830;4.364;2023-07-16T12:12:25;7.65;;;3.90;;
23078;SDS011;11707;50.830;4.364;2023-07-16T12:14:51;9.23;;;4.57;;
23078;SDS011;11707;50.830;4.364;2023-07-16T12:17:17;8.70;;;3.97;;
23078;SDS011;11707;50.830;4.364;2023-07-16T12:19:42;10.00;;;4.03;;
23078;SDS011;11707;50.830;4.364;2023-07-16T12:22:08;8.90;;;3.88;;
23078;SDS011;11707;50.830;4.364;2023-07-16T12:24:37;7.50;;;3.13;;
23078;SDS011;11707;50.830;4.364;2023-07-16T12:27:02;8.75;;;3.97;;
23078;SDS011;11707;50.830;4.364;2023-07-16T12:29:28;12.15;;;4.43;;
23078;SDS011;11707;50.830;4.364;2023-07-16T12:31:54;11.13;;;4.13;;
23078;SDS011;11707;50.830;4.364;2023-07-16T12:34:19;9.48;;;4.28;;
23078;SDS011;11707;50.830;4.364;2023-07-16T12:36:45;8.63;;;3.65;;
23078;SDS011;11707;50.830;4.364;2023-07-16T12:39:11;9.93;;;3.80;;
23078;SDS011;11707;50.830;4.364;2023-07-16T12:41:36;7.90;;;3.88;;
23078;SDS011;11707;50.830;4.364;2023-07-16T12:44:02;9.95;;;4.38;;
23078;SDS011;11707;50.830;4.364;2023-07-16T12:46:28;6.68;;;3.58;;
23078;SDS011;11707;50.830;4.364;2023-07-16T12:48:53;11.05;;;4.80;;
23078;SDS011;11707;50.830;4.364;2023-07-16T12:51:19;9.00;;;4.65;;
23078;SDS011;11707;50.830;4.364;2023-07-16T12:53:45;9.65;;;3.88;;
23078;SDS011;11707;50.830;4.364;2023-07-16T12:56:11;8.73;;;3.83;;
23078;SDS011;11707;50.830;4.364;2023-07-16T12:58:36;9.30;;;4.05;;
23078;SDS011;11707;50.830;4.364;2023-07-16T13:01:04;7.30;;;3.50;;
23078;SDS011;11707;50.830;4.364;2023-07-16T13:03:30;7.97;;;3.42;;
23078;SDS011;11707;50.830;4.364;2023-07-16T13:05:58;8.15;;;3.78;;
23078;SDS011;11707;50.830;4.364;2023-07-16T13:08:23;13.00;;;4.93;;
23078;SDS011;11707;50.830;4.364;2023-07-16T13:10:49;8.63;;;3.83;;
23078;SDS011;11707;50.830;4.364;2023-07-16T13:13:18;7.35;;;3.13;;
23078;SDS011;11707;50.830;4.364;2023-07-16T13:15:43;7.75;;;2.70;;
23078;SDS011;11707;50.830;4.364;2023-07-16T13:18:10;6.55;;;3.28;;
23078;SDS011;11707;50.830;4.364;2023-07-16T13:20:38;6.72;;;3.30;;
23078;SDS011;11707;50.830;4.364;2023-07-16T13:23:04;6.28;;;2.83;;
23078;SDS011;11707;50.830;4.364;2023-07-16T13:25:30;5.55;;;3.15;;
23078;SDS011;11707;50.830;4.364;2023-07-16T13:27:58;7.03;;;3.28;;
23078;SDS011;11707;50.830;4.364;2023-07-16T13:30:23;8.05;;;3.47;;
23078;SDS011;11707;50.830;4.364;2023-07-16T13:32:51;4.10;;;2.58;;
23078;SDS011;11707;50.830;4.364;2023-07-16T13:35:22;5.40;;;2.22;;
23078;SDS011;11707;50.830;4.364;2023-07-16T13:37:48;5.40;;;2.40;;
23078;SDS011;11707;50.830;4.364;2023-07-16T13:40:16;5.95;;;2.40;;
23078;SDS011;11707;50.830;4.364;2023-07-16T13:42:45;5.88;;;2.45;;
23078;SDS011;11707;50.830;4.364;2023-07-16T13:45:11;3.97;;;2.25;;
23078;SDS011;11707;50.830;4.364;2023-07-16T13:47:37;3.67;;;1.85;;
23078;SDS011;11707;50.830;4.364;2023-07-16T13:50:03;4.38;;;1.55;;
23078;SDS011;11707;50.830;4.364;2023-07-16T13:52:31;6.47;;;1.63;;
23078;SDS011;11707;50.830;4.364;2023-07-16T13:54:57;7.13;;;1.73;;
23078;SDS011;11707;50.830;4.364;2023-07-16T13:57:23;5.70;;;1.92;;
23078;SDS011;11707;50.830;4.364;2023-07-16T13:59:50;4.85;;;1.92;;
23078;SDS011;11707;50.830;4.364;2023-07-16T14:02:16;12.00;;;1.95;;
23078;SDS011;11707;50.830;4.364;2023-07-16T14:04:42;5.80;;;2.28;;
23078;SDS011;11707;50.830;4.364;2023-07-16T14:07:07;5.25;;;2.13;;
23078;SDS011;11707;50.830;4.364;2023-07-16T14:09:33;5.20;;;2.55;;
23078;SDS011;11707;50.830;4.364;2023-07-16T14:11:59;5.20;;;2.60;;
23078;SDS011;11707;50.830;4.364;2023-07-16T14:14:24;6.32;;;2.47;;
23078;SDS011;11707;50.830;4.364;2023-07-16T14:17:01;6.53;;;2.40;;
23078;SDS011;11707;50.830;4.364;2023-07-16T14:19:29;5.30;;;2.67;;
23078;SDS011;11707;50.830;4.364;2023-07-16T14:21:55;8.57;;;2.95;;
23078;SDS011;11707;50.830;4.364;2023-07-16T14:24:21;5.35;;;2.60;;
23078;SDS011;11707;50.830;4.364;2023-07-16T14:26:47;6.90;;;3.30;;
23078;SDS011;11707;50.830;4.364;2023-07-16T14:29:13;7.38;;;2.85;;
23078;SDS011;11707;50.830;4.364;2023-07-16T14:31:40;9.05;;;2.80;;
23078;SDS011;11707;50.830;4.364;2023-07-16T14:34:06;6.60;;;2.97;;
23078;SDS011;11707;50.830;4.364;2023-07-16T14:36:31;4.32;;;2.33;;
23078;SDS011;11707;50.830;4.364;2023-07-16T14:38:57;6.65;;;3.28;;
23078;SDS011;11707;50.830;4.364;2023-07-16T14:41:23;6.00;;;2.33;;
23078;SDS011;11707;50.830;4.364;2023-07-16T14:43:49;5.30;;;2.47;;
23078;SDS011;11707;50.830;4.364;2023-07-16T14:46:18;5.60;;;2.22;;
23078;SDS011;11707;50.830;4.364;2023-07-16T14:48:43;4.65;;;2.03;;
23078;SDS011;11707;50.830;4.364;2023-07-16T14:51:13;4.28;;;1.92;;
23078;SDS011;11707;50.830;4.364;2023-07-16T14:53:38;3.75;;;1.70;;
23078;SDS011;11707;50.830;4.364;2023-07-16T14:56:04;3.33;;;1.02;;
23078;SDS011;11707;50.830;4.364;2023-07-16T14:58:33;2.35;;;1.20;;
23078;SDS011;11707;50.830;4.364;2023-07-16T15:01:02;5.22;;;1.30;;
23078;SDS011;11707;50.830;4.364;2023-07-16T15:03:31;3.38;;;1.50;;
23078;SDS011;11707;50.830;4.364;2023-07-16T15:05:57;3.75;;;1.40;;